createdAt,value
2022-09-03T00:01:08.028Z,101007.22
2022-09-03T00:03:43.947Z,101006.06
2022-09-03T00:06:17.750Z,101009.63
2022-09-03T00:08:52.236Z,101011.44
2022-09-03T00:11:25.797Z,100997.25
2022-09-03T00:14:00.544Z,100981.91
2022-09-03T00:16:44.599Z,101001.16
2022-09-03T00:19:20.327Z,100993.16
2022-09-03T00:21:55.100Z,100910.31
2022-09-03T00:24:29.331Z,100990.03
2022-09-03T00:27:03.420Z,100985.63
2022-09-03T00:29:38.023Z,100986.16
2022-09-03T00:32:15.167Z,100990.16
2022-09-03T00:34:51.859Z,100990.03
2022-09-03T00:37:22.920Z,100981.19
2022-09-03T00:39:52.629Z,100959.59
2022-09-03T00:42:40.295Z,100988.47
2022-09-03T00:45:20.382Z,100964.63
2022-09-03T00:48:06.746Z,100978.47
2022-09-03T00:50:48.018Z,100974.09
2022-09-03T00:53:27.138Z,100907.38
2022-09-03T00:56:03.228Z,100985.00
2022-09-03T00:58:55.678Z,100988.28
2022-09-03T01:01:31.408Z,100984.59
2022-09-03T01:04:13.834Z,100963.03
2022-09-03T01:06:54.134Z,100976.41
2022-09-03T01:09:41.196Z,100991.72
2022-09-03T01:12:17.701Z,100988.78
2022-09-03T01:14:57.838Z,100988.59
2022-09-03T01:17:39.926Z,100993.31
2022-09-03T01:20:36.703Z,100984.78
2022-09-03T01:24:09.104Z,100985.75
2022-09-03T01:27:06.954Z,100984.91
2022-09-03T01:29:46.543Z,100996.78
2022-09-03T01:32:29.263Z,100992.38
2022-09-03T01:35:08.491Z,100995.22
2022-09-03T01:37:50.153Z,100991.31
2022-09-03T01:40:30.483Z,101000.56
2022-09-03T01:43:14.333Z,100990.25
2022-09-03T01:45:54.433Z,100989.75
2022-09-03T01:48:37.103Z,100981.84
2022-09-03T01:51:21.071Z,100984.78
2022-09-03T01:54:21.650Z,100991.84
2022-09-03T01:57:34.952Z,100959.69
2022-09-03T02:00:10.468Z,100984.28
2022-09-03T02:02:47.987Z,100962.81
2022-09-03T02:05:24.378Z,100973.84
2022-09-03T02:08:01.084Z,100985.34
2022-09-03T02:10:38.190Z,100884.25
2022-09-03T02:13:28.976Z,100876.53
2022-09-03T02:16:04.950Z,100975.41
2022-09-03T02:18:44.479Z,100973.53
2022-09-03T02:21:18.791Z,100976.78
2022-09-03T02:23:49.586Z,100974.78
2022-09-03T02:26:22.931Z,100962.81
2022-09-03T02:28:54.573Z,100973.50
2022-09-03T02:31:25.071Z,100979.16
2022-09-03T02:33:58.624Z,100971.00
2022-09-03T02:36:32.052Z,100970.25
2022-09-03T02:39:02.970Z,100968.38
2022-09-03T02:41:34.878Z,100956.06
2022-09-03T02:44:10.020Z,100961.59
2022-09-03T02:46:41.479Z,100964.69
2022-09-03T02:49:12.205Z,100969.56
2022-09-03T02:51:45.090Z,100971.03
2022-09-03T02:54:20.205Z,100976.28
2022-09-03T02:56:50.248Z,100973.84
2022-09-03T02:59:19.768Z,100967.63
2022-09-03T03:01:49.954Z,100967.13
2022-09-03T03:04:21.183Z,100963.13
2022-09-03T03:06:51.140Z,100953.78
2022-09-03T03:09:21.681Z,100965.97
2022-09-03T03:11:55.604Z,100967.22
2022-09-03T03:14:25.854Z,100962.69
2022-09-03T03:16:55.317Z,100962.19
2022-09-03T03:19:26.189Z,100959.16
2022-09-03T03:21:56.688Z,100955.28
2022-09-03T03:24:26.037Z,100957.59
2022-09-03T03:26:58.114Z,100949.97
2022-09-03T03:29:29.089Z,100953.91
2022-09-03T03:31:58.635Z,100879.03
2022-09-03T03:34:29.159Z,100959.06
2022-09-03T03:36:59.749Z,100954.63
2022-09-03T03:39:28.999Z,100959.34
2022-09-03T03:41:58.769Z,100962.44
2022-09-03T03:44:28.199Z,100962.84
2022-09-03T03:46:58.434Z,100967.88
2022-09-03T03:49:28.769Z,100942.56
2022-09-03T03:51:59.808Z,100946.25
2022-09-03T03:54:29.223Z,100989.97
2022-09-03T03:56:59.163Z,100967.34
2022-09-03T03:59:28.680Z,100968.50
2022-09-03T04:01:57.914Z,100965.78
2022-09-03T04:04:28.916Z,100932.59
2022-09-03T04:07:01.254Z,100970.94
2022-09-03T04:09:33.574Z,100962.09
2022-09-03T04:12:05.553Z,100965.13
2022-09-03T04:14:36.881Z,100868.28
2022-09-03T04:17:06.968Z,100963.38
2022-09-03T04:19:38.163Z,100958.00
2022-09-03T04:22:10.403Z,100958.72
2022-09-03T04:24:39.426Z,100959.06
2022-09-03T04:27:08.984Z,100951.25
2022-09-03T04:29:38.394Z,100959.16
2022-09-03T04:32:26.424Z,100938.69
2022-09-03T04:34:57.449Z,100954.28
2022-09-03T04:37:27.003Z,100951.47
2022-09-03T04:39:56.639Z,100955.25
2022-09-03T04:42:26.497Z,100962.22
2022-09-03T04:44:56.099Z,100884.41
2022-09-03T04:47:28.254Z,100954.75
2022-09-03T04:50:00.873Z,100961.16
2022-09-03T04:52:31.546Z,100941.28
2022-09-03T04:55:02.413Z,100960.53
2022-09-03T04:57:35.499Z,100958.81
2022-09-03T05:00:33.168Z,100960.00
2022-09-03T05:03:03.114Z,100953.28
2022-09-03T05:05:33.784Z,100952.94
2022-09-03T05:08:03.421Z,100957.06
2022-09-03T05:10:32.705Z,100958.88
2022-09-03T05:13:02.841Z,100961.06
2022-09-03T05:15:33.078Z,100957.50
2022-09-03T05:18:03.682Z,100963.06
2022-09-03T05:20:33.995Z,100958.88
2022-09-03T05:23:05.853Z,100961.88
2022-09-03T05:25:34.789Z,100963.78
2022-09-03T05:28:03.997Z,100963.88
2022-09-03T05:30:32.741Z,100956.97
2022-09-03T05:33:01.977Z,100941.00
2022-09-03T05:35:30.839Z,100964.41
2022-09-03T05:38:01.820Z,100861.16
2022-09-03T05:40:31.652Z,100959.59
2022-09-03T05:43:05.380Z,100956.84
2022-09-03T05:45:37.607Z,100965.97
2022-09-03T05:48:06.409Z,100954.81
2022-09-03T05:50:35.296Z,100964.72
2022-09-03T05:53:05.302Z,100962.00
2022-09-03T05:55:34.307Z,100952.13
2022-09-03T05:58:03.243Z,100960.34
2022-09-03T06:00:32.708Z,100962.63
2022-09-03T06:03:01.764Z,100969.06
2022-09-03T06:05:30.623Z,100964.88
2022-09-03T06:08:02.972Z,100961.25
2022-09-03T06:10:40.695Z,100954.06
2022-09-03T06:13:09.883Z,100941.00
2022-09-03T06:15:38.901Z,100958.78
2022-09-03T06:18:08.076Z,100958.59
2022-09-03T06:20:37.446Z,100971.00
2022-09-03T06:23:06.235Z,100957.06
2022-09-03T06:25:36.412Z,100964.66
2022-09-03T06:28:08.923Z,100969.78
2022-09-03T06:30:37.688Z,100968.00
2022-09-03T06:33:06.513Z,100957.56
2022-09-03T06:35:42.758Z,100965.47
2022-09-03T06:38:12.525Z,100971.56
2022-09-03T06:40:42.572Z,100975.75
2022-09-03T06:43:11.773Z,100972.41
2022-09-03T06:45:40.731Z,100968.94
2022-09-03T06:49:39.484Z,100979.97
2022-09-03T06:52:09.973Z,100923.81
2022-09-03T06:54:40.974Z,100973.41
2022-09-03T06:57:13.569Z,100972.72
2022-09-03T06:59:43.924Z,100974.59
2022-09-03T07:02:12.823Z,100976.31
2022-09-03T07:04:42.137Z,100969.22
2022-09-03T07:07:14.108Z,100974.72
2022-09-03T07:09:46.377Z,100967.34
2022-09-03T07:12:19.369Z,100968.25
2022-09-03T07:14:48.723Z,100981.00
2022-09-03T07:17:20.438Z,100983.13
2022-09-03T07:19:50.231Z,100973.97
2022-09-03T07:22:20.334Z,100972.25
2022-09-03T07:24:52.125Z,100980.59
2022-09-03T07:27:23.082Z,100975.50
2022-09-03T07:29:52.046Z,100978.53
2022-09-03T07:32:21.129Z,100984.56
2022-09-03T07:34:52.909Z,100981.47
2022-09-03T07:37:21.676Z,100985.81
2022-09-03T07:39:50.418Z,100983.28
2022-09-03T07:42:21.005Z,100978.63
2022-09-03T07:44:51.164Z,100988.19
2022-09-03T07:47:21.600Z,100985.03
2022-09-03T07:49:55.973Z,100987.63
2022-09-03T07:52:24.721Z,100983.75
2022-09-03T07:54:53.382Z,100993.38
2022-09-03T07:57:22.400Z,100987.75
2022-09-03T07:59:52.855Z,100985.25
2022-09-03T08:02:22.177Z,100986.63
2022-09-03T08:04:52.184Z,100985.38
2022-09-03T08:07:21.626Z,100983.25
2022-09-03T08:09:50.924Z,100987.41
2022-09-03T08:12:20.566Z,100987.84
2022-09-03T08:14:50.203Z,100990.53
2022-09-03T08:17:20.899Z,100994.69
2022-09-03T08:19:51.011Z,100849.47
2022-09-03T08:22:22.835Z,101002.44
2022-09-03T08:24:55.843Z,101000.88
2022-09-03T08:27:25.699Z,101005.41
2022-09-03T08:29:54.823Z,101010.41
2022-09-03T08:32:25.839Z,101006.91
2022-09-03T08:34:55.339Z,100939.34
2022-09-03T08:37:27.596Z,101012.13
2022-09-03T08:40:00.465Z,101003.44
2022-09-03T08:42:54.242Z,101010.88
2022-09-03T08:45:23.754Z,100988.09
2022-09-03T08:48:05.142Z,100995.72
2022-09-03T08:50:40.336Z,100977.69
2022-09-03T08:53:17.385Z,100990.53
2022-09-03T08:55:53.307Z,100994.31
2022-09-03T08:58:26.677Z,101001.22
2022-09-03T09:01:02.390Z,101005.13
2022-09-03T09:03:48.790Z,100992.78
2022-09-03T09:06:31.378Z,101005.38
2022-09-03T09:09:14.836Z,100990.41
2022-09-03T09:11:55.489Z,101006.38
2022-09-03T09:14:36.182Z,101001.72
2022-09-03T09:17:21.222Z,101001.53
2022-09-03T09:20:02.997Z,100999.09
2022-09-03T09:22:36.098Z,101000.09
2022-09-03T09:25:13.038Z,101001.94
2022-09-03T09:27:51.891Z,101002.88
2022-09-03T09:30:24.689Z,101008.25
2022-09-03T09:32:56.380Z,101000.50
2022-09-03T09:35:27.529Z,101003.78
2022-09-03T09:37:58.489Z,101003.47
2022-09-03T09:40:33.960Z,101000.88
2022-09-03T09:43:12.788Z,101002.97
2022-09-03T09:45:43.864Z,100846.13
2022-09-03T09:48:24.000Z,100985.84
2022-09-03T09:51:07.753Z,100994.56
2022-09-03T09:53:37.219Z,101009.91
2022-09-03T09:56:07.252Z,101004.56
2022-09-03T09:58:37.285Z,101004.91
2022-09-03T10:01:13.616Z,101001.72
2022-09-03T10:03:50.735Z,100998.22
2022-09-03T10:06:42.299Z,100995.72
2022-09-03T10:09:13.998Z,100913.53
2022-09-03T10:11:46.063Z,100994.06
2022-09-03T10:14:23.677Z,100989.38
2022-09-03T10:17:05.125Z,100998.19
2022-09-03T10:20:08.032Z,100973.75
2022-09-03T10:22:57.249Z,100994.78
2022-09-03T10:25:30.797Z,100995.66
2022-09-03T10:28:03.144Z,100993.41
2022-09-03T10:30:47.742Z,100990.16
2022-09-03T10:33:24.091Z,100984.91
2022-09-03T10:36:11.172Z,100984.19
2022-09-03T10:38:44.534Z,100983.94
2022-09-03T10:41:30.664Z,100977.72
2022-09-03T10:44:29.845Z,100979.84
2022-09-03T10:47:13.604Z,100958.97
2022-09-03T10:49:53.087Z,100975.25
2022-09-03T10:52:29.183Z,100969.63
2022-09-03T10:55:20.116Z,100964.34
2022-09-03T10:58:00.522Z,100942.50
2022-09-03T11:00:35.324Z,100963.16
2022-09-03T11:03:22.222Z,100964.06
2022-09-03T11:06:01.675Z,100966.44
2022-09-03T11:08:36.008Z,100962.91
2022-09-03T11:11:18.222Z,100952.31
2022-09-03T11:13:51.797Z,100964.09
2022-09-03T11:16:27.096Z,100958.75
2022-09-03T11:19:00.108Z,100963.00
2022-09-03T11:21:31.749Z,100962.66
2022-09-03T11:24:12.399Z,100966.22
2022-09-03T11:26:45.957Z,100959.06
2022-09-03T11:29:22.184Z,100956.34
2022-09-03T11:32:00.045Z,100955.81
2022-09-03T11:34:34.319Z,100952.97
2022-09-03T11:37:22.177Z,100952.53
2022-09-03T11:39:59.940Z,100956.19
2022-09-03T11:42:35.577Z,100945.13
2022-09-03T11:45:36.653Z,100945.00
2022-09-03T11:48:19.721Z,100931.97
2022-09-03T11:50:56.231Z,100951.22
2022-09-03T11:53:30.181Z,100945.22
2022-09-03T11:56:03.731Z,100951.88
2022-09-03T11:58:39.898Z,100947.91
2022-09-03T12:01:15.003Z,100947.72
2022-09-03T12:03:48.087Z,100956.63
2022-09-03T12:06:33.736Z,100951.66
2022-09-03T12:09:24.625Z,100949.41
2022-09-03T12:12:03.730Z,100952.50
2022-09-03T12:14:49.651Z,100958.47
2022-09-03T12:17:30.108Z,100956.34
2022-09-03T12:20:00.366Z,100954.75
2022-09-03T12:22:39.651Z,100942.25
2022-09-03T12:25:13.166Z,100948.84
2022-09-03T12:27:49.424Z,100960.09
2022-09-03T12:30:24.466Z,100958.25
2022-09-03T12:33:05.722Z,100932.84
2022-09-03T12:38:29.763Z,100963.09
2022-09-03T12:43:53.894Z,100962.00
2022-09-03T12:46:33.415Z,100849.78
2022-09-03T12:52:06.211Z,100952.75
2022-09-03T12:54:37.691Z,100954.84
2022-09-03T12:57:06.621Z,100954.69
2022-09-03T12:59:39.370Z,100939.69
2022-09-03T13:02:17.495Z,100954.31
2022-09-03T13:04:48.017Z,100944.81
2022-09-03T13:07:26.140Z,100950.72
2022-09-03T13:10:04.658Z,100948.22
2022-09-03T13:12:35.653Z,100945.84
2022-09-03T13:15:11.884Z,100945.66
2022-09-03T13:18:02.743Z,100942.69
2022-09-03T13:20:46.694Z,100935.31
2022-09-03T13:23:36.245Z,100939.53
2022-09-03T13:26:18.836Z,100932.47
2022-09-03T13:29:13.469Z,100938.44
2022-09-03T13:31:47.663Z,100937.31
2022-09-03T13:34:24.075Z,100909.84
2022-09-03T13:37:04.115Z,100938.91
2022-09-03T13:39:42.451Z,100942.13
2022-09-03T13:42:24.413Z,100933.94
2022-09-03T13:45:00.023Z,100931.06
2022-09-03T13:47:36.378Z,100932.91
2022-09-03T13:50:22.617Z,100926.03
2022-09-03T13:52:59.256Z,100925.81
2022-09-03T13:55:34.945Z,100931.88
2022-09-03T13:58:13.160Z,100926.66
2022-09-03T14:00:46.982Z,100925.25
2022-09-03T14:03:32.192Z,100928.94
2022-09-03T14:06:10.531Z,100822.78
2022-09-03T14:08:53.356Z,100925.97
2022-09-03T14:11:33.656Z,100925.28
2022-09-03T14:14:13.437Z,100937.56
2022-09-03T14:16:51.108Z,100915.97
2022-09-03T14:19:33.454Z,100937.66
2022-09-03T14:22:10.856Z,100911.50
2022-09-03T14:24:47.286Z,100936.56
2022-09-03T14:27:25.675Z,100937.44
2022-09-03T14:29:59.674Z,100933.28
2022-09-03T14:32:42.627Z,100942.59
2022-09-03T14:35:33.288Z,100921.78
2022-09-03T14:38:41.408Z,100930.09
2022-09-03T14:41:33.523Z,100935.72
2022-09-03T14:44:40.747Z,100926.97
2022-09-03T14:47:22.124Z,100939.50
2022-09-03T14:50:21.013Z,100938.22
2022-09-03T14:53:03.298Z,100943.53
2022-09-03T14:55:51.427Z,100938.03
2022-09-03T14:58:49.888Z,100941.59
2022-09-03T15:01:28.967Z,100943.50
2022-09-03T15:04:28.840Z,100945.16
2022-09-03T15:07:14.338Z,100947.38
2022-09-03T15:09:52.005Z,100827.97
2022-09-03T15:12:26.478Z,100938.72
2022-09-03T15:14:58.019Z,100934.78
2022-09-03T15:17:53.174Z,100790.38
2022-09-03T15:20:31.345Z,100939.56
2022-09-03T15:23:18.267Z,100944.19
2022-09-03T15:26:06.849Z,100933.34
2022-09-03T15:28:51.672Z,100946.66
2022-09-03T15:31:27.182Z,100941.88
2022-09-03T15:34:02.840Z,100942.06
2022-09-03T15:36:37.407Z,100955.31
2022-09-03T15:39:11.742Z,100957.56
2022-09-03T15:41:51.476Z,100954.09
2022-09-03T15:44:28.137Z,100950.22
2022-09-03T15:47:14.064Z,100941.78
2022-09-03T15:49:54.267Z,100946.44
2022-09-03T15:52:33.666Z,100952.47
2022-09-03T15:55:09.892Z,100941.41
2022-09-03T15:57:48.269Z,100938.78
2022-09-03T16:00:21.771Z,100934.75
2022-09-03T16:03:02.064Z,100940.56
2022-09-03T16:05:43.537Z,100948.06
2022-09-03T16:08:23.213Z,100942.47
2022-09-03T16:11:02.968Z,100942.56
2022-09-03T16:13:42.761Z,100945.97
2022-09-03T16:16:17.135Z,100953.13
2022-09-03T16:18:55.287Z,100933.41
2022-09-03T16:21:30.350Z,100962.56
2022-09-03T16:24:04.350Z,100941.31
2022-09-03T16:26:38.695Z,100956.28
2022-09-03T16:29:10.258Z,100963.81
2022-09-03T16:31:58.915Z,100922.06
2022-09-03T16:34:42.187Z,100953.03
2022-09-03T16:37:23.460Z,100955.91
2022-09-03T16:40:01.817Z,100946.03
2022-09-03T16:42:41.234Z,100943.25
2022-09-03T16:45:20.911Z,100960.84
2022-09-03T16:48:09.921Z,100958.75
2022-09-03T16:50:53.213Z,100959.41
2022-09-03T16:53:29.614Z,100958.91
2022-09-03T16:56:15.323Z,100953.50
2022-09-03T16:58:54.889Z,100953.59
2022-09-03T17:01:42.909Z,100948.72
2022-09-03T17:04:36.798Z,100952.31
2022-09-03T17:07:20.193Z,100956.53
2022-09-03T17:10:02.237Z,100957.00
2022-09-03T17:12:39.615Z,100953.50
2022-09-03T17:15:28.533Z,100954.81
2022-09-03T17:18:31.037Z,100954.03
2022-09-03T17:21:17.860Z,100950.91
2022-09-03T17:24:05.745Z,100846.09
2022-09-03T17:26:45.887Z,100958.22
2022-09-03T17:29:29.083Z,100962.75
2022-09-03T17:32:12.598Z,100970.22
2022-09-03T17:34:57.013Z,100968.88
2022-09-03T17:37:37.700Z,100972.19
2022-09-03T17:40:42.983Z,100982.81
2022-09-03T17:43:23.103Z,100985.00
2022-09-03T17:46:00.149Z,100979.34
2022-09-03T17:48:47.076Z,100982.50
2022-09-03T17:51:26.744Z,100991.31
2022-09-03T17:54:05.878Z,100992.91
2022-09-03T17:56:41.211Z,100994.47
2022-09-03T17:59:44.289Z,100999.47
2022-09-03T18:02:25.890Z,101002.53
2022-09-03T18:05:01.035Z,101009.09
2022-09-03T18:07:41.699Z,101011.91
2022-09-03T18:10:26.674Z,101012.25
2022-09-03T18:13:03.546Z,101015.00
2022-09-03T18:15:38.937Z,101016.53
2022-09-03T18:18:19.089Z,101022.78
2022-09-03T18:21:24.401Z,101014.84
2022-09-03T18:24:21.298Z,101039.53
2022-09-03T18:27:17.302Z,101038.09
2022-09-03T18:30:09.520Z,101033.81
2022-09-03T18:32:56.638Z,101039.91
2022-09-03T18:35:46.106Z,101040.53
2022-09-03T18:38:33.994Z,101049.22
2022-09-03T18:41:49.108Z,101025.94
2022-09-03T18:45:06.682Z,101065.84
2022-09-03T18:48:16.490Z,101057.31
2022-09-03T18:51:13.037Z,101067.34
2022-09-03T18:54:04.256Z,101067.50
2022-09-03T18:56:56.541Z,101065.97
2022-09-03T19:00:05.988Z,101071.97
2022-09-03T19:03:00.304Z,101075.03
2022-09-03T19:05:54.779Z,101077.28
2022-09-03T19:08:46.484Z,101080.63
2022-09-03T19:11:45.702Z,101082.59
2022-09-03T19:14:43.915Z,101080.34
2022-09-03T19:17:39.265Z,101060.28
2022-09-03T19:20:33.033Z,101095.72
2022-09-03T19:23:22.275Z,101102.97
2022-09-03T19:26:10.653Z,101101.72
2022-09-03T19:29:06.793Z,101104.66
2022-09-03T19:32:04.156Z,101101.75
2022-09-03T19:35:18.524Z,101105.78
2022-09-03T19:38:19.216Z,101103.28
2022-09-03T19:41:20.367Z,101100.88
2022-09-03T19:44:19.061Z,101102.81
2022-09-03T19:47:09.232Z,101087.31
2022-09-03T19:50:09.961Z,101104.63
2022-09-03T19:53:04.358Z,101106.59
2022-09-03T19:55:55.136Z,101103.22
2022-09-03T19:58:47.147Z,101098.91
2022-09-03T20:01:36.643Z,101103.38
2022-09-03T20:04:31.560Z,101104.91
2022-09-03T20:07:21.731Z,101111.56
2022-09-03T20:10:10.962Z,101111.03
2022-09-03T20:12:44.496Z,101116.03
2022-09-03T20:15:14.649Z,101104.75
2022-09-03T20:17:54.114Z,101114.09
2022-09-03T20:20:33.460Z,101114.22
2022-09-03T20:23:13.081Z,101117.69
2022-09-03T20:25:59.411Z,101105.91
2022-09-03T20:28:43.601Z,101099.78
2022-09-03T20:31:24.506Z,101126.28
2022-09-03T20:34:04.177Z,101118.81
2022-09-03T20:36:41.824Z,101120.97
2022-09-03T20:39:32.737Z,101105.81
2022-09-03T20:42:18.819Z,101099.66
2022-09-03T20:45:09.756Z,101134.53
2022-09-03T20:48:17.108Z,101105.78
2022-09-03T20:50:56.649Z,101139.84
2022-09-03T20:53:54.496Z,101135.91
2022-09-03T20:56:29.725Z,101132.69
2022-09-03T20:59:08.893Z,101136.69
2022-09-03T21:01:53.099Z,101112.06
2022-09-03T21:04:42.228Z,101109.25
2022-09-03T21:07:21.841Z,101141.22
2022-09-03T21:10:01.110Z,101137.44
2022-09-03T21:12:42.514Z,101049.50
2022-09-03T21:15:38.124Z,101138.59
2022-09-03T21:18:15.136Z,101128.84
2022-09-03T21:20:48.878Z,101150.25
2022-09-03T21:23:23.279Z,101141.97
2022-09-03T21:25:58.558Z,101146.41
2022-09-03T21:28:33.387Z,101144.97
2022-09-03T21:31:11.427Z,101150.38
2022-09-03T21:33:40.777Z,101141.19
2022-09-03T21:36:16.566Z,101147.28
2022-09-03T21:38:49.245Z,101120.00
2022-09-03T21:41:24.834Z,101149.59
2022-09-03T21:44:00.035Z,101149.97
2022-09-03T21:46:36.502Z,101159.00
2022-09-03T21:49:11.060Z,101156.47
2022-09-03T21:51:49.059Z,101153.97
2022-09-03T21:54:24.768Z,101153.75
2022-09-03T21:57:18.811Z,101160.28
2022-09-03T22:00:19.252Z,101164.88
2022-09-03T22:02:50.773Z,101135.41
2022-09-03T22:05:20.126Z,101178.91
2022-09-03T22:08:14.477Z,101166.00
2022-09-03T22:10:55.099Z,101172.00
2022-09-03T22:13:31.800Z,101172.25
2022-09-03T22:16:15.450Z,101104.34
2022-09-03T22:18:47.241Z,101168.16
2022-09-03T22:21:23.363Z,101162.41
2022-09-03T22:24:14.720Z,101169.59
2022-09-03T22:26:52.103Z,101172.25
2022-09-03T22:29:31.762Z,101167.44
2022-09-03T22:32:08.475Z,101171.25
2022-09-03T22:35:10.051Z,101175.81
2022-09-03T22:37:55.633Z,101174.63
2022-09-03T22:40:29.867Z,101166.25
2022-09-03T22:43:08.921Z,101177.78
2022-09-03T22:45:54.472Z,101178.84
2022-09-03T22:48:32.834Z,101154.97
2022-09-03T22:51:04.088Z,101181.63
2022-09-03T22:53:50.151Z,101172.97
2022-09-03T22:56:22.461Z,101178.84
2022-09-03T22:58:57.824Z,101184.00
2022-09-03T23:01:31.658Z,101181.13
2022-09-03T23:04:10.560Z,101184.72
2022-09-03T23:06:51.057Z,101190.25
2022-09-03T23:09:25.896Z,101188.59
2022-09-03T23:12:01.118Z,101194.31
2022-09-03T23:14:36.479Z,101196.25
2022-09-03T23:17:13.021Z,101186.41
2022-09-03T23:19:46.435Z,101193.00
2022-09-03T23:22:23.281Z,101192.16
2022-09-03T23:24:58.351Z,101190.34
2022-09-03T23:27:35.231Z,101141.81
2022-09-03T23:30:07.104Z,101185.44
2022-09-03T23:32:36.255Z,101201.41
2022-09-03T23:35:12.219Z,101198.75
2022-09-03T23:37:55.219Z,101175.81
2022-09-03T23:40:50.558Z,101202.84
2022-09-03T23:43:55.207Z,101208.13
2022-09-03T23:46:29.349Z,101186.75
2022-09-03T23:49:16.281Z,101203.22
2022-09-03T23:51:59.467Z,101216.63
2022-09-03T23:54:34.736Z,101208.34
2022-09-03T23:57:13.815Z,101216.00
